sensor_id;sensor_type;location;lat;lon;timestamp;pressure;altitude;pressure_sealevel;temperature;humidity
21011;BME280;10663;42.714;23.274;2023-08-20T15:26:02;94871.34;;;37.24;21.20
21011;BME280;10663;42.714;23.274;2023-08-20T15:27:33;94870.09;;;38.02;21.12
21011;BME280;10663;42.714;23.274;2023-08-20T15:29:05;94872.59;;;38.67;20.11
21011;BME280;10663;42.714;23.274;2023-08-20T15:30:36;94875.47;;;37.48;21.01
21011;BME280;10663;42.714;23.274;2023-08-20T15:32:06;94872.69;;;37.48;21.56
21011;BME280;10663;42.714;23.274;2023-08-20T15:33:38;94876.59;;;37.96;21.63
21011;BME280;10663;42.714;23.274;2023-08-20T15:35:09;94877.06;;;37.33;21.41
21011;BME280;10663;42.714;23.274;2023-08-20T15:36:39;94878.13;;;37.52;21.22
21011;BME280;10663;42.714;23.274;2023-08-20T15:38:10;94880.00;;;36.54;21.69
21011;BME280;10663;42.714;23.274;2023-08-20T15:39:41;94869.59;;;36.06;22.48
21011;BME280;10663;42.714;23.274;2023-08-20T15:41:12;94879.72;;;35.46;23.10
21011;BME280;10663;42.714;23.274;2023-08-20T15:42:43;94874.78;;;35.80;23.31
21011;BME280;10663;42.714;23.274;2023-08-20T15:44:13;94869.53;;;36.29;22.24
21011;BME280;10663;42.714;23.274;2023-08-20T15:45:44;94870.44;;;36.78;21.49
21011;BME280;10663;42.714;23.274;2023-08-20T15:47:15;94866.13;;;35.35;23.07
21011;BME280;10663;42.714;23.274;2023-08-20T15:48:46;94875.59;;;35.57;22.95
21011;BME280;10663;42.714;23.274;2023-08-20T15:50:16;94876.59;;;34.40;24.51
21011;BME280;10663;42.714;23.274;2023-08-20T15:51:47;94863.69;;;35.41;23.99
21011;BME280;10663;42.714;23.274;2023-08-20T15:53:18;94873.44;;;35.45;23.47
21011;BME280;10663;42.714;23.274;2023-08-20T15:54:48;94865.97;;;36.09;22.73
21011;BME280;10663;42.714;23.274;2023-08-20T15:56:19;94869.19;;;36.43;22.74
21011;BME280;10663;42.714;23.274;2023-08-20T15:57:50;94867.03;;;36.70;23.08
21011;BME280;10663;42.714;23.274;2023-08-20T15:59:21;94873.38;;;37.52;21.29
21011;BME280;10663;42.714;23.274;2023-08-20T16:00:51;94873.34;;;36.51;22.63
21011;BME280;10663;42.714;23.274;2023-08-20T16:02:22;94868.75;;;36.64;22.90
21011;BME280;10663;42.714;23.274;2023-08-20T16:03:53;94857.31;;;36.82;22.31
21011;BME280;10663;42.714;23.274;2023-08-20T16:05:24;94864.44;;;36.63;22.70
21011;BME280;10663;42.714;23.274;2023-08-20T16:06:54;94876.78;;;36.39;22.23
21011;BME280;10663;42.714;23.274;2023-08-20T16:08:26;94860.78;;;36.50;22.92
21011;BME280;10663;42.714;23.274;2023-08-20T16:09:56;94860.72;;;35.51;23.92
21011;BME280;10663;42.714;23.274;2023-08-20T16:11:27;94869.44;;;35.26;24.64
21011;BME280;10663;42.714;23.274;2023-08-20T16:12:58;94868.28;;;35.47;24.33
21011;BME280;10663;42.714;23.274;2023-08-20T16:14:28;94874.75;;;35.14;24.06
21011;BME280;10663;42.714;23.274;2023-08-20T16:15:59;94882.44;;;35.26;24.30
21011;BME280;10663;42.714;23.274;2023-08-20T16:17:30;94870.50;;;35.56;25.36
21011;BME280;10663;42.714;23.274;2023-08-20T16:19:02;94867.97;;;34.95;24.64
21011;BME280;10663;42.714;23.274;2023-08-20T16:20:33;94873.13;;;34.63;25.31
21011;BME280;10663;42.714;23.274;2023-08-20T16:22:04;94871.34;;;34.79;24.94
21011;BME280;10663;42.714;23.274;2023-08-20T16:23:35;94880.41;;;34.15;26.00
21011;BME280;10663;42.714;23.274;2023-08-20T16:25:06;94881.16;;;34.80;25.38
21011;BME280;10663;42.714;23.274;2023-08-20T16:26:37;94882.41;;;34.45;25.29
21011;BME280;10663;42.714;23.274;2023-08-20T16:28:08;94882.19;;;33.99;26.86
21011;BME280;10663;42.714;23.274;2023-08-20T16:29:42;94890.41;;;34.02;25.67
21011;BME280;10663;42.714;23.274;2023-08-20T16:31:12;94890.31;;;33.72;26.77
21011;BME280;10663;42.714;23.274;2023-08-20T16:32:44;94882.38;;;33.81;26.73
21011;BME280;10663;42.714;23.274;2023-08-20T16:34:16;94894.13;;;33.85;26.55
21011;BME280;10663;42.714;23.274;2023-08-20T16:35:48;94893.63;;;33.53;27.21
21011;BME280;10663;42.714;23.274;2023-08-20T16:37:18;94898.81;;;33.47;26.75
21011;BME280;10663;42.714;23.274;2023-08-20T16:38:49;94898.19;;;32.70;28.04
21011;BME280;10663;42.714;23.274;2023-08-20T16:40:21;94906.63;;;32.97;28.02
21011;BME280;10663;42.714;23.274;2023-08-20T16:41:51;94890.22;;;32.90;28.22
21011;BME280;10663;42.714;23.274;2023-08-20T16:43:22;94900.34;;;32.96;28.29
21011;BME280;10663;42.714;23.274;2023-08-20T17:07:43;94923.41;;;30.34;32.47
21011;BME280;10663;42.714;23.274;2023-08-20T17:09:14;94923.31;;;30.09;33.11
21011;BME280;10663;42.714;23.274;2023-08-20T17:10:46;94939.03;;;29.61;34.80
21011;BME280;10663;42.714;23.274;2023-08-20T17:12:17;94940.34;;;29.34;34.23
21011;BME280;10663;42.714;23.274;2023-08-20T17:13:48;94945.66;;;29.16;35.35
21011;BME280;10663;42.714;23.274;2023-08-20T17:15:19;94942.78;;;28.98;35.17
21011;BME280;10663;42.714;23.274;2023-08-20T17:16:50;94945.00;;;28.82;35.62
21011;BME280;10663;42.714;23.274;2023-08-20T17:18:21;94950.66;;;28.66;36.16
21011;BME280;10663;42.714;23.274;2023-08-20T17:19:52;94949.31;;;28.53;36.56
21011;BME280;10663;42.714;23.274;2023-08-20T17:21:23;94953.56;;;28.51;36.37
21011;BME280;10663;42.714;23.274;2023-08-20T17:22:54;94959.28;;;28.39;36.98
21011;BME280;10663;42.714;23.274;2023-08-20T17:24:25;94952.19;;;28.31;37.54
21011;BME280;10663;42.714;23.274;2023-08-20T17:25:57;94952.06;;;28.20;38.09
21011;BME280;10663;42.714;23.274;2023-08-20T17:27:27;94956.31;;;28.17;37.07
21011;BME280;10663;42.714;23.274;2023-08-20T17:28:59;94964.72;;;28.09;37.70
21011;BME280;10663;42.714;23.274;2023-08-20T17:30:30;94960.78;;;28.06;37.90
21011;BME280;10663;42.714;23.274;2023-08-20T17:32:01;94961.44;;;27.96;38.36
21011;BME280;10663;42.714;23.274;2023-08-20T17:33:32;94959.41;;;27.89;38.42
21011;BME280;10663;42.714;23.274;2023-08-20T17:35:04;94969.06;;;27.83;42.23
21011;BME280;10663;42.714;23.274;2023-08-20T17:36:38;94964.66;;;27.75;38.95
21011;BME280;10663;42.714;23.274;2023-08-20T17:38:10;94968.81;;;27.66;39.33
21011;BME280;10663;42.714;23.274;2023-08-20T17:39:41;94971.47;;;27.62;40.54
21011;BME280;10663;42.714;23.274;2023-08-20T17:41:12;94974.50;;;27.57;40.85
21011;BME280;10663;42.714;23.274;2023-08-20T17:42:43;94979.84;;;27.53;39.86
21011;BME280;10663;42.714;23.274;2023-08-20T17:44:14;94981.75;;;27.49;40.09
21011;BME280;10663;42.714;23.274;2023-08-20T17:45:45;94979.56;;;27.36;39.87
21011;BME280;10663;42.714;23.274;2023-08-20T17:47:16;94982.31;;;27.36;42.32
21011;BME280;10663;42.714;23.274;2023-08-20T17:48:47;94982.66;;;27.34;42.57
21011;BME280;10663;42.714;23.274;2023-08-20T17:50:18;94987.53;;;27.22;41.26
21011;BME280;10663;42.714;23.274;2023-08-20T17:51:50;94985.63;;;27.26;42.70
21011;BME280;10663;42.714;23.274;2023-08-20T17:53:25;94986.78;;;27.25;43.36
21011;BME280;10663;42.714;23.274;2023-08-20T17:54:56;94999.47;;;27.17;41.75
21011;BME280;10663;42.714;23.274;2023-08-20T17:56:27;94991.13;;;27.06;42.40
21011;BME280;10663;42.714;23.274;2023-08-20T17:57:58;94991.09;;;27.03;43.81
21011;BME280;10663;42.714;23.274;2023-08-20T17:59:30;94994.88;;;26.98;43.53
21011;BME280;10663;42.714;23.274;2023-08-20T18:01:01;94993.59;;;26.92;43.56
21011;BME280;10663;42.714;23.274;2023-08-20T18:02:32;94997.38;;;26.88;43.71
21011;BME280;10663;42.714;23.274;2023-08-20T18:04:03;95004.38;;;26.89;42.82
21011;BME280;10663;42.714;23.274;2023-08-20T18:05:36;95005.88;;;26.86;43.12
21011;BME280;10663;42.714;23.274;2023-08-20T18:07:07;95010.56;;;26.86;43.21
21011;BME280;10663;42.714;23.274;2023-08-20T18:08:38;95012.06;;;26.83;43.37
21011;BME280;10663;42.714;23.274;2023-08-20T18:10:10;95011.53;;;26.77;43.13
21011;BME280;10663;42.714;23.274;2023-08-20T18:11:41;95013.56;;;26.80;43.93
21011;BME280;10663;42.714;23.274;2023-08-20T18:13:12;95016.19;;;26.77;42.53
21011;BME280;10663;42.714;23.274;2023-08-20T18:14:45;95013.34;;;26.70;43.69
21011;BME280;10663;42.714;23.274;2023-08-20T18:16:15;95027.00;;;26.73;43.77
21011;BME280;10663;42.714;23.274;2023-08-20T18:17:46;95020.88;;;26.76;44.35
21011;BME280;10663;42.714;23.274;2023-08-20T18:19:17;95016.94;;;26.74;44.45
21011;BME280;10663;42.714;23.274;2023-08-20T18:20:48;95015.72;;;26.71;44.16
21011;BME280;10663;42.714;23.274;2023-08-20T18:22:19;95025.00;;;26.70;46.04
21011;BME280;10663;42.714;23.274;2023-08-20T18:23:50;95026.78;;;26.63;43.73
21011;BME280;10663;42.714;23.274;2023-08-20T18:25:21;95027.03;;;26.54;44.69
21011;BME280;10663;42.714;23.274;2023-08-20T18:26:52;95022.38;;;26.55;47.28
21011;BME280;10663;42.714;23.274;2023-08-20T18:28:23;95026.31;;;26.57;47.83
21011;BME280;10663;42.714;23.274;2023-08-20T18:29:54;95024.75;;;26.56;48.46
21011;BME280;10663;42.714;23.274;2023-08-20T18:31:25;95021.88;;;26.49;45.24
21011;BME280;10663;42.714;23.274;2023-08-20T18:32:56;95026.78;;;26.43;46.09
21011;BME280;10663;42.714;23.274;2023-08-20T18:34:26;95032.81;;;26.53;48.17
21011;BME280;10663;42.714;23.274;2023-08-20T18:35:59;95030.59;;;26.39;44.81
21011;BME280;10663;42.714;23.274;2023-08-20T18:37:30;95027.38;;;26.33;44.64
21011;BME280;10663;42.714;23.274;2023-08-20T18:39:01;95028.78;;;26.27;46.07
21011;BME280;10663;42.714;23.274;2023-08-20T18:40:37;95035.00;;;26.28;46.76
21011;BME280;10663;42.714;23.274;2023-08-20T18:42:08;95035.06;;;26.31;48.14
21011;BME280;10663;42.714;23.274;2023-08-20T18:43:40;95043.34;;;26.19;46.90
21011;BME280;10663;42.714;23.274;2023-08-20T18:45:11;95039.19;;;26.25;49.05
21011;BME280;10663;42.714;23.274;2023-08-20T18:46:42;95045.41;;;26.26;49.59
21011;BME280;10663;42.714;23.274;2023-08-20T18:48:13;95036.59;;;26.29;51.34
21011;BME280;10663;42.714;23.274;2023-08-20T18:49:44;95043.50;;;26.26;51.31
21011;BME280;10663;42.714;23.274;2023-08-20T18:51:18;95041.66;;;26.15;49.35
21011;BME280;10663;42.714;23.274;2023-08-20T18:52:50;95047.88;;;26.15;50.41
21011;BME280;10663;42.714;23.274;2023-08-20T18:54:21;95044.44;;;25.99;47.71
21011;BME280;10663;42.714;23.274;2023-08-20T18:55:51;95047.16;;;25.99;49.50
21011;BME280;10663;42.714;23.274;2023-08-20T18:57:22;95048.53;;;26.08;50.97
21011;BME280;10663;42.714;23.274;2023-08-20T18:58:53;95044.72;;;25.94;48.24
21011;BME280;10663;42.714;23.274;2023-08-20T19:00:23;95045.06;;;25.92;49.70
21011;BME280;10663;42.714;23.274;2023-08-20T19:01:56;95045.22;;;25.99;51.27
21011;BME280;10663;42.714;23.274;2023-08-20T19:03:27;95048.38;;;26.01;50.44
21011;BME280;10663;42.714;23.274;2023-08-20T19:04:58;95053.38;;;25.99;50.90
21011;BME280;10663;42.714;23.274;2023-08-20T19:06:29;95049.53;;;26.00;50.25
21011;BME280;10663;42.714;23.274;2023-08-20T19:07:59;95056.28;;;25.91;49.97
21011;BME280;10663;42.714;23.274;2023-08-20T19:09:30;95056.97;;;25.88;51.87
21011;BME280;10663;42.714;23.274;2023-08-20T19:11:01;95058.31;;;25.78;48.99
21011;BME280;10663;42.714;23.274;2023-08-20T19:12:33;95056.56;;;25.86;53.03
21011;BME280;10663;42.714;23.274;2023-08-20T19:14:04;95065.91;;;25.88;52.40
21011;BME280;10663;42.714;23.274;2023-08-20T19:15:44;95049.31;;;25.74;50.89
21011;BME280;10663;42.714;23.274;2023-08-20T19:17:16;95060.34;;;25.65;52.12
21011;BME280;10663;42.714;23.274;2023-08-20T19:18:46;95066.72;;;25.57;50.32
21011;BME280;10663;42.714;23.274;2023-08-20T19:20:17;95067.84;;;25.72;52.05
21011;BME280;10663;42.714;23.274;2023-08-20T19:21:48;95066.72;;;25.73;50.17
21011;BME280;10663;42.714;23.274;2023-08-20T19:23:19;95064.97;;;25.65;51.40
21011;BME280;10663;42.714;23.274;2023-08-20T19:24:49;95061.97;;;25.54;50.33
21011;BME280;10663;42.714;23.274;2023-08-20T19:26:20;95064.59;;;25.51;51.50
21011;BME280;10663;42.714;23.274;2023-08-20T19:27:51;95063.47;;;25.52;52.03
21011;BME280;10663;42.714;23.274;2023-08-20T19:29:22;95068.19;;;25.55;52.16
21011;BME280;10663;42.714;23.274;2023-08-20T19:30:53;95065.22;;;25.60;54.21
21011;BME280;10663;42.714;23.274;2023-08-20T19:32:24;95070.13;;;25.70;54.36
21011;BME280;10663;42.714;23.274;2023-08-20T19:33:55;95067.25;;;25.63;51.96
21011;BME280;10663;42.714;23.274;2023-08-20T19:35:26;95063.63;;;25.59;52.62
21011;BME280;10663;42.714;23.274;2023-08-20T19:36:57;95068.19;;;25.55;51.55
21011;BME280;10663;42.714;23.274;2023-08-20T19:38:28;95072.13;;;25.57;53.12
21011;BME280;10663;42.714;23.274;2023-08-20T19:39:58;95073.84;;;25.50;53.08
21011;BME280;10663;42.714;23.274;2023-08-20T19:41:31;95067.69;;;25.49;54.18
21011;BME280;10663;42.714;23.274;2023-08-20T19:43:03;95067.25;;;25.63;54.50
21011;BME280;10663;42.714;23.274;2023-08-20T19:44:34;95070.47;;;25.68;54.09
21011;BME280;10663;42.714;23.274;2023-08-20T19:46:05;95071.09;;;25.62;53.23
21011;BME280;10663;42.714;23.274;2023-08-20T19:47:36;95076.50;;;25.78;53.52
21011;BME280;10663;42.714;23.274;2023-08-20T19:49:06;95076.34;;;25.70;52.97
21011;BME280;10663;42.714;23.274;2023-08-20T19:50:40;95075.28;;;25.59;50.04
21011;BME280;10663;42.714;23.274;2023-08-20T19:52:11;95073.78;;;25.46;50.81
21011;BME280;10663;42.714;23.274;2023-08-20T19:53:43;95083.22;;;25.37;51.60
21011;BME280;10663;42.714;23.274;2023-08-20T19:55:15;95075.09;;;25.37;49.89
21011;BME280;10663;42.714;23.274;2023-08-20T19:56:45;95073.97;;;25.53;53.12
21011;BME280;10663;42.714;23.274;2023-08-20T19:58:16;95075.19;;;25.56;51.65
21011;BME280;10663;42.714;23.274;2023-08-20T19:59:47;95079.03;;;25.39;49.59
21011;BME280;10663;42.714;23.274;2023-08-20T20:01:20;95076.13;;;25.32;49.53
21011;BME280;10663;42.714;23.274;2023-08-20T20:02:51;95080.63;;;25.40;50.91
21011;BME280;10663;42.714;23.274;2023-08-20T20:04:23;95077.38;;;25.34;52.58
21011;BME280;10663;42.714;23.274;2023-08-20T20:05:54;95081.22;;;25.33;49.08
21011;BME280;10663;42.714;23.274;2023-08-20T20:07:25;95080.19;;;25.38;54.55
21011;BME280;10663;42.714;23.274;2023-08-20T20:08:56;95082.00;;;25.34;53.53
21011;BME280;10663;42.714;23.274;2023-08-20T20:10:26;95078.66;;;25.25;50.55
21011;BME280;10663;42.714;23.274;2023-08-20T20:11:57;95084.19;;;25.28;53.32
21011;BME280;10663;42.714;23.274;2023-08-20T20:13:28;95088.66;;;25.21;51.28
21011;BME280;10663;42.714;23.274;2023-08-20T20:14:59;95082.50;;;25.24;51.27
21011;BME280;10663;42.714;23.274;2023-08-20T20:16:30;95095.28;;;25.23;53.99
21011;BME280;10663;42.714;23.274;2023-08-20T20:18:01;95089.97;;;25.27;51.17
21011;BME280;10663;42.714;23.274;2023-08-20T20:19:32;95080.41;;;25.17;49.83
21011;BME280;10663;42.714;23.274;2023-08-20T20:21:02;95083.47;;;25.16;49.55
21011;BME280;10663;42.714;23.274;2023-08-20T20:22:34;95085.31;;;25.12;48.81
21011;BME280;10663;42.714;23.274;2023-08-20T20:24:05;95079.78;;;25.08;49.82
21011;BME280;10663;42.714;23.274;2023-08-20T20:25:36;95085.25;;;24.96;50.12
21011;BME280;10663;42.714;23.274;2023-08-20T20:27:07;95084.47;;;24.95;50.47
21011;BME280;10663;42.714;23.274;2023-08-20T20:28:37;95087.41;;;24.90;49.99
21011;BME280;10663;42.714;23.274;2023-08-20T20:30:09;95079.88;;;24.84;50.20
21011;BME280;10663;42.714;23.274;2023-08-20T20:31:40;95084.16;;;24.85;50.07
21011;BME280;10663;42.714;23.274;2023-08-20T20:33:11;95078.44;;;24.74;50.73
21011;BME280;10663;42.714;23.274;2023-08-20T20:34:41;95078.91;;;24.76;50.18
21011;BME280;10663;42.714;23.274;2023-08-20T20:36:12;95073.81;;;24.75;50.53
21011;BME280;10663;42.714;23.274;2023-08-20T20:37:43;95077.22;;;24.72;50.95
21011;BME280;10663;42.714;23.274;2023-08-20T20:39:14;95078.94;;;24.64;50.87
21011;BME280;10663;42.714;23.274;2023-08-20T20:40:45;95082.19;;;24.70;51.89
21011;BME280;10663;42.714;23.274;2023-08-20T20:42:16;95083.81;;;24.86;52.55
21011;BME280;10663;42.714;23.274;2023-08-20T20:43:47;95080.22;;;24.82;50.37
21011;BME280;10663;42.714;23.274;2023-08-20T20:45:18;95083.09;;;24.74;50.52
21011;BME280;10663;42.714;23.274;2023-08-20T20:47:03;95074.53;;;24.59;50.69
21011;BME280;10663;42.714;23.274;2023-08-20T20:48:34;95076.03;;;24.57;50.81
21011;BME280;10663;42.714;23.274;2023-08-20T20:50:06;95084.97;;;24.45;50.91
21011;BME280;10663;42.714;23.274;2023-08-20T20:51:36;95086.00;;;24.41;51.16
21011;BME280;10663;42.714;23.274;2023-08-20T20:53:07;95097.53;;;24.38;51.72
21011;BME280;10663;42.714;23.274;2023-08-20T20:54:38;95080.72;;;24.32;52.06
21011;BME280;10663;42.714;23.274;2023-08-20T20:56:09;95089.53;;;24.29;51.60
21011;BME280;10663;42.714;23.274;2023-08-20T20:57:39;95082.22;;;24.30;52.19
21011;BME280;10663;42.714;23.274;2023-08-20T20:59:10;95090.22;;;24.26;52.97
21011;BME280;10663;42.714;23.274;2023-08-20T21:00:41;95087.16;;;24.28;53.15
21011;BME280;10663;42.714;23.274;2023-08-20T21:02:14;95085.84;;;24.21;52.53
21011;BME280;10663;42.714;23.274;2023-08-20T21:03:45;95089.09;;;24.27;53.06
21011;BME280;10663;42.714;23.274;2023-08-20T21:05:16;95091.25;;;24.21;52.25
21011;BME280;10663;42.714;23.274;2023-08-20T21:06:47;95088.97;;;24.23;52.31
21011;BME280;10663;42.714;23.274;2023-08-20T21:08:18;95083.44;;;24.20;51.90
21011;BME280;10663;42.714;23.274;2023-08-20T21:09:48;95086.59;;;24.22;53.65
21011;BME280;10663;42.714;23.274;2023-08-20T21:11:20;95095.38;;;24.31;53.86
21011;BME280;10663;42.714;23.274;2023-08-20T21:12:51;95086.16;;;24.20;52.74
21011;BME280;10663;42.714;23.274;2023-08-20T21:14:21;95089.09;;;24.27;54.31
21011;BME280;10663;42.714;23.274;2023-08-20T21:15:52;95093.59;;;24.23;53.11
21011;BME280;10663;42.714;23.274;2023-08-20T21:17:23;95105.22;;;24.11;53.83
21011;BME280;10663;42.714;23.274;2023-08-20T21:18:54;95097.09;;;24.11;53.88
21011;BME280;10663;42.714;23.274;2023-08-20T21:20:25;95103.06;;;24.05;54.66
21011;BME280;10663;42.714;23.274;2023-08-20T21:21:55;95100.06;;;23.94;54.66
21011;BME280;10663;42.714;23.274;2023-08-20T21:23:31;95097.88;;;23.87;54.65
21011;BME280;10663;42.714;23.274;2023-08-20T21:25:02;95096.56;;;23.94;56.03
21011;BME280;10663;42.714;23.274;2023-08-20T21:26:33;95103.31;;;24.12;58.69
21011;BME280;10663;42.714;23.274;2023-08-20T21:28:03;95101.16;;;24.05;57.51
21011;BME280;10663;42.714;23.274;2023-08-20T21:29:34;95101.38;;;23.88;58.01
21011;BME280;10663;42.714;23.274;2023-08-20T21:31:05;95103.53;;;23.82;59.49
21011;BME280;10663;42.714;23.274;2023-08-20T21:32:36;95106.47;;;23.65;58.30
21011;BME280;10663;42.714;23.274;2023-08-20T21:34:06;95108.91;;;23.58;58.11
21011;BME280;10663;42.714;23.274;2023-08-20T21:35:37;95109.53;;;23.76;60.36
21011;BME280;10663;42.714;23.274;2023-08-20T21:37:08;95116.50;;;23.65;58.69
21011;BME280;10663;42.714;23.274;2023-08-20T21:38:39;95120.97;;;23.48;58.56
21011;BME280;10663;42.714;23.274;2023-08-20T21:40:09;95108.53;;;23.35;58.81
21011;BME280;10663;42.714;23.274;2023-08-20T21:41:40;95115.47;;;23.24;59.23
21011;BME280;10663;42.714;23.274;2023-08-20T21:43:11;95120.97;;;23.16;59.90
21011;BME280;10663;42.714;23.274;2023-08-20T21:44:42;95126.38;;;23.16;59.76
21011;BME280;10663;42.714;23.274;2023-08-20T21:46:12;95120.09;;;23.11;59.75
21011;BME280;10663;42.714;23.274;2023-08-20T21:47:43;95116.03;;;23.18;60.09
21011;BME280;10663;42.714;23.274;2023-08-20T21:49:17;95122.16;;;23.27;60.59
21011;BME280;10663;42.714;23.274;2023-08-20T21:50:53;95119.41;;;23.14;60.81
21011;BME280;10663;42.714;23.274;2023-08-20T21:52:24;95122.66;;;23.08;60.29
21011;BME280;10663;42.714;23.274;2023-08-20T21:53:55;95130.97;;;23.03;60.12
21011;BME280;10663;42.714;23.274;2023-08-20T21:55:25;95130.38;;;22.97;59.76
21011;BME280;10663;42.714;23.274;2023-08-20T21:56:56;95129.78;;;23.12;62.09
21011;BME280;10663;42.714;23.274;2023-08-20T21:58:26;95124.09;;;23.05;60.48
21011;BME280;10663;42.714;23.274;2023-08-20T21:59:57;95125.31;;;22.96;59.82
21011;BME280;10663;42.714;23.274;2023-08-20T22:01:28;95131.22;;;23.10;60.30
21011;BME280;10663;42.714;23.274;2023-08-20T22:02:58;95129.78;;;23.12;60.64
21011;BME280;10663;42.714;23.274;2023-08-20T22:04:31;95129.50;;;23.05;59.73
21011;BME280;10663;42.714;23.274;2023-08-20T22:06:03;95130.38;;;22.97;59.49
21011;BME280;10663;42.714;23.274;2023-08-20T22:07:34;95133.69;;;23.03;59.97
21011;BME280;10663;42.714;23.274;2023-08-20T22:09:05;95129.63;;;23.09;61.03
21011;BME280;10663;42.714;23.274;2023-08-20T22:10:36;95129.81;;;23.04;59.33
21011;BME280;10663;42.714;23.274;2023-08-20T22:12:07;95135.59;;;23.02;59.76
21011;BME280;10663;42.714;23.274;2023-08-20T22:13:39;95129.56;;;22.85;60.16
21011;BME280;10663;42.714;23.274;2023-08-20T22:15:10;95132.03;;;22.69;60.22
21011;BME280;10663;42.714;23.274;2023-08-20T22:16:41;95134.78;;;22.60;60.61
21011;BME280;10663;42.714;23.274;2023-08-20T22:18:11;95144.38;;;22.58;60.25
21011;BME280;10663;42.714;23.274;2023-08-20T22:19:42;95136.19;;;22.66;61.15
21011;BME280;10663;42.714;23.274;2023-08-20T22:21:13;95136.78;;;22.72;61.06
21011;BME280;10663;42.714;23.274;2023-08-20T22:22:44;95127.81;;;22.59;60.82
21011;BME280;10663;42.714;23.274;2023-08-20T22:24:15;95140.41;;;22.55;61.48
21011;BME280;10663;42.714;23.274;2023-08-20T22:25:50;95140.72;;;22.54;60.90
21011;BME280;10663;42.714;23.274;2023-08-20T22:27:20;95131.13;;;22.44;61.08
21011;BME280;10663;42.714;23.274;2023-08-20T22:28:51;95132.44;;;22.38;62.04
21011;BME280;10663;42.714;23.274;2023-08-20T22:30:22;95133.09;;;22.35;62.58
21011;BME280;10663;42.714;23.274;2023-08-20T22:31:53;95131.31;;;22.39;62.77
21011;BME280;10663;42.714;23.274;2023-08-20T22:33:24;95133.88;;;22.35;61.50
21011;BME280;10663;42.714;23.274;2023-08-20T22:34:54;95140.66;;;22.21;62.15
21011;BME280;10663;42.714;23.274;2023-08-20T22:36:25;95133.66;;;22.20;62.83
21011;BME280;10663;42.714;23.274;2023-08-20T22:38:06;95137.53;;;22.10;62.84
21011;BME280;10663;42.714;23.274;2023-08-20T22:39:37;95136.31;;;21.99;63.26
21011;BME280;10663;42.714;23.274;2023-08-20T22:41:08;95133.31;;;22.00;63.96
21011;BME280;10663;42.714;23.274;2023-08-20T22:42:38;95129.72;;;22.17;64.13
21011;BME280;10663;42.714;23.274;2023-08-20T22:44:09;95135.34;;;22.03;63.19
21011;BME280;10663;42.714;23.274;2023-08-20T22:45:39;95133.00;;;21.93;63.49
21011;BME280;10663;42.714;23.274;2023-08-20T22:47:10;95131.28;;;21.89;63.67
21011;BME280;10663;42.714;23.274;2023-08-20T22:48:41;95133.06;;;21.85;63.97
21011;BME280;10663;42.714;23.274;2023-08-20T22:50:14;95129.09;;;21.82;64.39
21011;BME280;10663;42.714;23.274;2023-08-20T22:51:45;95134.31;;;21.79;64.16
21011;BME280;10663;42.714;23.274;2023-08-20T22:53:16;95131.50;;;21.75;63.77
21011;BME280;10663;42.714;23.274;2023-08-20T22:54:47;95127.50;;;21.81;63.62
21011;BME280;10663;42.714;23.274;2023-08-20T22:56:17;95132.44;;;21.79;63.50
21011;BME280;10663;42.714;23.274;2023-08-20T22:57:48;95133.84;;;21.77;63.43
21011;BME280;10663;42.714;23.274;2023-08-20T22:59:19;95136.06;;;21.83;63.64
21011;BME280;10663;42.714;23.274;2023-08-20T23:00:50;95139.41;;;21.80;63.65
21011;BME280;10663;42.714;23.274;2023-08-20T23:02:20;95134.81;;;21.81;64.40
21011;BME280;10663;42.714;23.274;2023-08-20T23:03:51;95133.66;;;21.90;63.86
21011;BME280;10663;42.714;23.274;2023-08-20T23:05:22;95135.06;;;21.88;63.84
21011;BME280;10663;42.714;23.274;2023-08-20T23:06:53;95132.09;;;21.81;63.76
21011;BME280;10663;42.714;23.274;2023-08-20T23:08:23;95130.53;;;21.80;63.91
21011;BME280;10663;42.714;23.274;2023-08-20T23:09:54;95137.50;;;21.81;63.71
21011;BME280;10663;42.714;23.274;2023-08-20T23:11:25;95133.25;;;21.71;64.49
21011;BME280;10663;42.714;23.274;2023-08-20T23:12:56;95141.19;;;21.67;64.34
21011;BME280;10663;42.714;23.274;2023-08-20T23:14:26;95138.69;;;21.62;64.27
21011;BME280;10663;42.714;23.274;2023-08-20T23:15:57;95144.28;;;21.87;65.14
21011;BME280;10663;42.714;23.274;2023-08-20T23:17:28;95139.91;;;22.12;64.38
21011;BME280;10663;42.714;23.274;2023-08-20T23:18:58;95142.22;;;21.92;63.50
21011;BME280;10663;42.714;23.274;2023-08-20T23:20:29;95138.44;;;21.85;63.30
21011;BME280;10663;42.714;23.274;2023-08-20T23:22:00;95137.81;;;21.79;64.26
21011;BME280;10663;42.714;23.274;2023-08-20T23:23:31;95140.13;;;21.98;63.99
21011;BME280;10663;42.714;23.274;2023-08-20T23:25:02;95135.56;;;21.90;64.15
21011;BME280;10663;42.714;23.274;2023-08-20T23:26:33;95130.19;;;21.81;64.32
21011;BME280;10663;42.714;23.274;2023-08-20T23:28:03;95138.34;;;21.73;64.40
21011;BME280;10663;42.714;23.274;2023-08-20T23:29:35;95139.59;;;21.75;64.66
21011;BME280;10663;42.714;23.274;2023-08-20T23:31:06;95136.84;;;21.84;64.80
21011;BME280;10663;42.714;23.274;2023-08-20T23:32:38;95137.81;;;21.79;65.15
21011;BME280;10663;42.714;23.274;2023-08-20T23:34:08;95149.56;;;22.13;65.41
21011;BME280;10663;42.714;23.274;2023-08-20T23:35:39;95137.13;;;21.91;64.36
21011;BME280;10663;42.714;23.274;2023-08-20T23:37:11;95138.44;;;21.85;65.10
21011;BME280;10663;42.714;23.274;2023-08-20T23:38:42;95139.25;;;21.77;64.97
21011;BME280;10663;42.714;23.274;2023-08-20T23:40:12;95128.06;;;21.66;65.07
21011;BME280;10663;42.714;23.274;2023-08-20T23:41:43;95129.22;;;21.56;65.56
21011;BME280;10663;42.714;23.274;2023-08-20T23:43:14;95136.97;;;21.49;65.69
21011;BME280;10663;42.714;23.274;2023-08-20T23:44:45;95132.72;;;21.48;66.23